Hlavní strana
METAR-TAF:

METAR-TAF

Letiště :

Letiště Seinäjoki

Seinäjoki-Ilmajoki, Finsko

zeměpisná šířka: 62-41-37N, zeměpisná délka: 022-49-55E, výška: 91 m

Aktuální stav počasí

Zpráva byla vytvořena před 28 minutami, v 02:20 UTC
Západní vítr 11 kt s nárazy do 21 kt, proměnlivý mezi jihojihozápadním a severozápadním
Teplota 3°C
Vlhkost vzduchu 56%
Tlak 999 hPa
Viditelnost 10 km a více
Žádná oblačnost pod 1500 m, nevyskytují se cumulonimby.

METAR: EFSI 240220Z AUTO 26011G21KT 210V320 CAVOK 03/M05 Q0999

Čas: 04:48 (02:48 UTC)


TAF: chybějící

Stav a předpovědi počasí z více než 4 000 letišť (zprávy METAR a TAF).

Červené a žluté tečky na mapě představují dostupné meteorologické stanice.

Když kurzor umístíte na tečku, zobrazí se název stanice.

Pak kliknutím zobrazíte stav a předpověď počasí.

Chcete-li změnit mapu, kliknutím na zelené tlačítko se znaménkem +mapu přiblížíte, kliknutím na zelené tlačítko se znaménkem – mapu oddálíte a kliknutím na zelené šipky přejdete na sousední mapy.


METAR-TAF: